»·PEaware :: N901DJ KSJT-KAFW

N901DJ :: KSJT-KAFW

FLIGHT INFORMATION

Flight Status: Arrived
Operator: Privately registered:
United States
More flights under this callsign
Pilot: Drew L. (13237)
Aircraft: SOCATA TBM-900
(TBM9)
More flights by this aircraft type
Origin: KSJT San Angelo Regl/Mathis
United States
Destination: KAFW Ft Worth Alliance
United States
More flights between these airports :: More routes between these airports
Route: JEN SLUGG7
File this flight plan on PilotEdge
Remarks: ROGER
Altitude:
(Current/Filed)
25,000ft
Speed:
(Current/Filed)
0kts
Departed: 20-Oct-18 06:36 PM
Arrived: 20-Oct-18 07:30 PM
Distance/Time
Traveled:
189nm/0:54
Distance/Time
To Go:
Arrived

Flight Plot

Page will automatically refresh every two minutes.

Flight plan parsing failed; only flown route is shown


Map Options




Map Legend


Flown Route
Filed Route
Departure Airport
Arrival Airport
Navaid (VOR, NDB)
Fix

Horizontal Profiles

Position Reports

Time Latitude Longitude Heading Altitude Ground
Speed
20-Oct-18 18:29 31.358334 -100.501558 107 1907ft 0kts
20-Oct-18 18:30 31.358334 -100.501558 107 1907ft 0kts
20-Oct-18 18:31 31.358334 -100.501558 107 1907ft 0kts
20-Oct-18 18:32 31.358334 -100.501558 107 1907ft 0kts
20-Oct-18 18:33 31.358334 -100.501558 107 1907ft 0kts
20-Oct-18 18:34 31.358334 -100.501558 107 1907ft 0kts
20-Oct-18 18:35 31.358334 -100.501558 107 1907ft 0kts
20-Oct-18 18:36 31.358334 -100.501558 107 1907ft 0kts
20-Oct-18 18:37 31.358116 -100.501094 135 1907ft 13kts
20-Oct-18 18:38 31.345540 -100.500599 179 2127ft 118kts
20-Oct-18 18:39 31.326783 -100.472817 80 4039ft 131kts
20-Oct-18 18:40 31.352856 -100.444154 34 6006ft 134kts
20-Oct-18 18:41 31.382524 -100.418024 34 7895ft 136kts
20-Oct-18 18:42 31.412970 -100.390921 34 9636ft 139kts
20-Oct-18 18:43 31.443911 -100.363112 34 11232ft 142kts
20-Oct-18 18:44 31.462292 -100.321713 65 12681ft 151kts
20-Oct-18 18:45 31.476306 -100.274680 64 14021ft 155kts
20-Oct-18 18:46 31.490658 -100.226297 64 15249ft 160kts
20-Oct-18 18:47 31.505428 -100.176395 63 16379ft 165kts
20-Oct-18 18:48 31.520602 -100.125040 62 17420ft 169kts
20-Oct-18 18:49 31.536392 -100.071576 62 18555ft 181kts
20-Oct-18 18:50 31.552825 -100.015657 61 20442ft 185kts
20-Oct-18 18:51 31.570120 -99.956869 61 22067ft 196kts
20-Oct-18 18:52 31.588272 -99.894986 61 23530ft 206kts
20-Oct-18 18:53 31.607285 -99.830019 62 24869ft 216kts
20-Oct-18 18:54 31.628210 -99.758513 63 25395ft 258kts
20-Oct-18 18:55 31.653120 -99.672806 64 25381ft 294kts
20-Oct-18 18:56 31.680698 -99.577754 65 25375ft 318kts
20-Oct-18 18:57 31.709434 -99.478428 65 25371ft 326kts
20-Oct-18 18:58 31.738723 -99.376855 65 25371ft 329kts
20-Oct-18 18:59 31.751514 -99.332402 66 25362ft 330kts
20-Oct-18 19:00 31.779605 -99.234519 66 25358ft 330kts
20-Oct-18 19:01 31.808839 -99.132310 65 25355ft 330kts
20-Oct-18 19:02 31.833016 -99.047497 65 25354ft 330kts
20-Oct-18 19:03 31.866804 -98.928591 65 25355ft 330kts
20-Oct-18 19:04 31.890822 -98.843810 65 25355ft 330kts
20-Oct-18 19:05 31.923781 -98.727043 65 25357ft 330kts
20-Oct-18 19:06 31.947779 -98.641727 65 25357ft 330kts
20-Oct-18 19:07 31.981340 -98.521991 65 25358ft 330kts
20-Oct-18 19:08 32.005258 -98.436352 65 25359ft 330kts
20-Oct-18 19:09 32.030452 -98.345877 65 25363ft 331kts
20-Oct-18 19:10 32.044691 -98.294637 65 25360ft 330kts
20-Oct-18 19:11 32.072710 -98.193453 65 25383ft 327kts
20-Oct-18 19:12 32.100388 -98.093252 65 25378ft 324kts
20-Oct-18 19:13 32.128058 -97.992702 65 25386ft 324kts
20-Oct-18 19:14 32.156685 -97.892927 51 25361ft 315kts
20-Oct-18 19:15 32.225786 -97.846093 15 25378ft 289kts
20-Oct-18 19:16 32.299886 -97.810026 14 25370ft 289kts
20-Oct-18 19:17 32.374170 -97.774082 14 25369ft 283kts
20-Oct-18 19:18 32.440978 -97.741802 15 23040ft 257kts
20-Oct-18 19:19 32.496620 -97.692287 41 20367ft 253kts
20-Oct-18 19:20 32.542670 -97.632644 43 17801ft 240kts
20-Oct-18 19:21 32.586482 -97.575875 39 15276ft 231kts
20-Oct-18 19:22 32.641160 -97.540769 27 12774ft 224kts
20-Oct-18 19:23 32.695239 -97.506496 27 10381ft 219kts
20-Oct-18 19:24 32.747565 -97.473315 26 8104ft 213kts
20-Oct-18 19:25 32.797984 -97.441300 26 6063ft 207kts
20-Oct-18 19:26 32.843561 -97.409519 33 4962ft 172kts
20-Oct-18 19:27 32.881168 -97.378322 33 4335ft 156kts
20-Oct-18 19:28 32.918978 -97.349438 21 4346ft 173kts
20-Oct-18 19:29 32.966015 -97.335598 343 2771ft 184kts
20-Oct-18 19:30 33.008203 -97.348795 25 2095ft 112kts
20-Oct-18 19:31 33.002789 -97.321044 168 824ft 94kts
20-Oct-18 19:32 32.988613 -97.317728 95 692ft 18kts
20-Oct-18 19:33 32.987027 -97.314630 349 692ft 0kts
20-Oct-18 19:34 32.987027 -97.314630 349 692ft 0kts
20-Oct-18 19:35 32.987027 -97.314630 349 692ft 0kts

Navigation Log

Ident Type
Flight plan parsing failed, navigation log unavailable